KAHN

Athens / Ben Epps Airport

Athens, Georgia, USA
METAR KAHN 241151Z AUTO VRB03KT 9SM BKN004 OVC090 16/16 A3021 RMK AO2 SLP227 T01610156 10172 20156 56001
Observed Flight Rules
Feb-24 @ 11:51 UTC (29 minutes ago) Instrument Flight Rules
Wind Visibility Clouds
Variable at 3 knots 9 miles
  • Broken at 400' AGL
  • Overcast at 9,000' AGL
Temperatures Readings
Current 16°C / 61°F
Dewpoint 16°C / 61°F
Humidity 100%
Altimeter 30.21" Hg
Pressure 1022.7 hPa
Elevation 244
METAR KAHN 241151Z AUTO VRB03KT 9SM BKN004 OVC090 16/16 A3021 RMK AO2 SLP227 T01610156 10172 20156 56001
Observed Flight Rules
Feb-24 @ 11:51 UTC
(29 minutes ago)
LIFR
Wind Visibility
Variable at 3 knots 9 miles
Clouds
  • Broken at 400' AGL
  • Overcast at 9,000' AGL
Temperature Dewpoint
16°C / 61°F 16°C / 61°F
Humidity Altimeter Pressure
100% 30.21" Hg 1022.7 hPa